createdAt,value
2018-12-23T00:01:22.485Z,85.59
2018-12-23T00:03:51.397Z,85.37
2018-12-23T00:06:20.316Z,84.17
2018-12-23T00:08:49.199Z,84.93
2018-12-23T00:11:18.099Z,85.02
2018-12-23T00:13:47.029Z,85.27
2018-12-23T00:16:15.907Z,85.29
2018-12-23T00:18:44.825Z,85.24
2018-12-23T00:21:13.721Z,85.31
2018-12-23T00:23:42.613Z,83.81
2018-12-23T00:26:11.515Z,84.71
2018-12-23T00:28:40.419Z,84.96
2018-12-23T00:31:09.308Z,84.70
2018-12-23T00:33:38.248Z,84.76
2018-12-23T00:36:07.137Z,85.23
2018-12-23T00:38:36.010Z,85.11
2018-12-23T00:41:04.906Z,84.97
2018-12-23T00:43:33.875Z,84.99
2018-12-23T00:46:02.692Z,85.02
2018-12-23T00:48:31.614Z,85.01
2018-12-23T00:51:00.522Z,85.26
2018-12-23T00:53:29.451Z,85.38
2018-12-23T00:55:58.336Z,85.06
2018-12-23T00:58:27.214Z,85.20
2018-12-23T01:00:56.141Z,84.87
2018-12-23T01:03:25.023Z,84.80
2018-12-23T01:05:53.941Z,84.87
2018-12-23T01:08:22.825Z,84.58
2018-12-23T01:10:51.692Z,84.74
2018-12-23T01:13:20.598Z,84.75
2018-12-23T01:15:49.480Z,84.50
2018-12-23T01:18:18.439Z,84.58
2018-12-23T01:20:47.293Z,84.62
2018-12-23T01:23:16.166Z,84.56
2018-12-23T01:25:45.091Z,84.53
2018-12-23T01:28:14.100Z,84.83
2018-12-23T01:30:42.891Z,83.33
2018-12-23T01:33:11.803Z,84.21
2018-12-23T01:35:40.672Z,84.48
2018-12-23T01:38:09.586Z,82.37
2018-12-23T01:40:38.503Z,83.68
2018-12-23T01:43:07.470Z,84.08
2018-12-23T01:45:36.419Z,84.05
2018-12-23T01:48:05.470Z,83.59
2018-12-23T01:50:34.240Z,83.98
2018-12-23T01:53:03.161Z,83.90
2018-12-23T01:55:32.067Z,84.57
2018-12-23T01:58:00.994Z,84.99
2018-12-23T02:00:29.873Z,84.87
2018-12-23T02:02:58.766Z,84.76
2018-12-23T02:05:27.676Z,84.48
2018-12-23T02:07:56.572Z,84.75
2018-12-23T02:10:25.490Z,85.41
2018-12-23T02:12:54.438Z,85.57
2018-12-23T02:15:23.285Z,85.89
2018-12-23T02:17:52.153Z,85.40
2018-12-23T02:20:21.065Z,85.81
2018-12-23T02:22:49.956Z,85.84
2018-12-23T02:25:18.890Z,85.67
2018-12-23T02:27:47.786Z,86.60
2018-12-23T02:30:16.687Z,86.43
2018-12-23T02:32:45.585Z,86.41
2018-12-23T02:35:14.487Z,86.35
2018-12-23T02:37:43.405Z,86.48
2018-12-23T02:40:12.271Z,86.40
2018-12-23T02:42:41.255Z,86.62
2018-12-23T02:45:10.074Z,86.63
2018-12-23T02:47:39.022Z,86.78
2018-12-23T02:50:07.966Z,87.01
2018-12-23T02:52:36.874Z,87.28
2018-12-23T02:55:05.805Z,87.08
2018-12-23T02:57:34.720Z,87.09
2018-12-23T03:00:03.627Z,87.22
2018-12-23T03:02:32.511Z,86.97
2018-12-23T03:05:01.429Z,87.18
2018-12-23T03:07:30.365Z,87.65
2018-12-23T03:09:59.234Z,88.15
2018-12-23T03:12:28.150Z,88.25
2018-12-23T03:14:57.048Z,87.17
2018-12-23T03:17:25.962Z,87.87
2018-12-23T03:19:54.892Z,87.67
2018-12-23T03:22:23.800Z,87.88
2018-12-23T03:24:52.689Z,87.84
2018-12-23T03:27:21.603Z,88.11
2018-12-23T03:29:50.521Z,88.56
2018-12-23T03:32:19.382Z,88.92
2018-12-23T03:34:48.305Z,88.75
2018-12-23T03:37:17.164Z,88.42
2018-12-23T03:39:46.075Z,88.60
2018-12-23T03:42:14.940Z,88.50
2018-12-23T03:44:43.878Z,88.82
2018-12-23T03:47:12.810Z,89.20
2018-12-23T03:49:41.685Z,88.81
2018-12-23T03:52:10.591Z,87.39
2018-12-23T03:54:39.482Z,88.27
2018-12-23T03:57:08.400Z,88.64
2018-12-23T03:59:37.288Z,88.41
2018-12-23T04:02:06.183Z,88.84
2018-12-23T04:04:35.065Z,89.16
2018-12-23T04:07:03.997Z,88.44
2018-12-23T04:09:32.902Z,88.97
2018-12-23T04:12:01.787Z,88.81
2018-12-23T04:14:30.669Z,89.18
2018-12-23T04:16:59.579Z,89.47
2018-12-23T04:19:28.440Z,87.66
2018-12-23T04:21:57.347Z,88.83
2018-12-23T04:24:26.213Z,88.80
2018-12-23T04:26:55.102Z,88.50
2018-12-23T04:29:24.019Z,88.20
2018-12-23T04:31:52.957Z,88.16
2018-12-23T04:34:21.808Z,88.42
2018-12-23T04:36:50.734Z,88.40
2018-12-23T04:39:19.850Z,89.25
2018-12-23T04:41:48.739Z,88.65
2018-12-23T04:44:17.655Z,89.12
2018-12-23T04:46:46.545Z,88.19
2018-12-23T04:49:15.458Z,87.94
2018-12-23T04:51:44.345Z,88.22
2018-12-23T04:54:13.278Z,88.43
2018-12-23T04:56:42.200Z,88.49
2018-12-23T04:59:11.066Z,88.32
2018-12-23T05:01:40.007Z,88.63
2018-12-23T05:04:08.953Z,89.05
2018-12-23T05:06:43.274Z,89.01
2018-12-23T05:09:07.052Z,88.84
2018-12-23T05:11:35.937Z,88.97
2018-12-23T05:14:04.861Z,88.64
2018-12-23T05:16:33.759Z,88.99
2018-12-23T05:19:02.660Z,88.85
2018-12-23T05:21:31.557Z,88.92
2018-12-23T05:24:00.431Z,89.23
2018-12-23T05:26:29.330Z,88.95
2018-12-23T05:28:58.221Z,88.98
2018-12-23T05:31:27.129Z,88.95
2018-12-23T05:33:56.003Z,88.94
2018-12-23T05:36:24.940Z,89.17
2018-12-23T05:38:53.843Z,88.89
2018-12-23T05:41:22.787Z,88.94
2018-12-23T05:43:51.673Z,89.29
2018-12-23T05:46:20.552Z,89.22
2018-12-23T05:48:49.432Z,88.75
2018-12-23T05:51:18.342Z,89.21
2018-12-23T05:53:47.229Z,88.99
2018-12-23T05:56:16.148Z,89.21
2018-12-23T05:58:45.028Z,87.57
2018-12-23T06:01:13.952Z,88.62
2018-12-23T06:03:42.860Z,88.63
2018-12-23T06:06:11.738Z,88.57
2018-12-23T06:08:40.644Z,88.34
2018-12-23T06:11:09.526Z,88.48
2018-12-23T06:13:38.425Z,88.80
2018-12-23T06:16:07.333Z,88.48
2018-12-23T06:18:36.309Z,88.70
2018-12-23T06:21:05.131Z,88.38
2018-12-23T06:23:34.047Z,88.16
2018-12-23T06:26:02.974Z,88.32
2018-12-23T06:28:31.864Z,88.84
2018-12-23T06:31:00.769Z,88.78
2018-12-23T06:33:29.677Z,89.11
2018-12-23T06:35:58.580Z,88.97
2018-12-23T06:38:27.479Z,88.70
2018-12-23T06:40:56.352Z,88.54
2018-12-23T06:43:25.252Z,88.69
2018-12-23T06:45:54.148Z,88.85
2018-12-23T06:48:23.015Z,89.11
2018-12-23T06:50:51.929Z,88.77
2018-12-23T06:53:20.874Z,88.88
2018-12-23T06:55:49.740Z,89.09
2018-12-23T06:58:18.634Z,89.39
2018-12-23T07:00:47.517Z,89.08
2018-12-23T07:03:16.398Z,87.52
2018-12-23T07:05:45.293Z,88.51
2018-12-23T07:08:14.199Z,88.75
2018-12-23T07:10:43.096Z,88.56
2018-12-23T07:13:11.998Z,88.98
2018-12-23T07:15:40.892Z,88.72
2018-12-23T07:18:09.811Z,88.63
2018-12-23T07:20:38.690Z,88.93
2018-12-23T07:23:07.608Z,89.06
2018-12-23T07:25:36.499Z,88.62
2018-12-23T07:28:05.428Z,88.48
2018-12-23T07:30:34.352Z,88.64
2018-12-23T07:33:03.289Z,87.41
2018-12-23T07:35:32.189Z,88.02
2018-12-23T07:38:01.127Z,88.24
2018-12-23T07:40:30.033Z,88.28
2018-12-23T07:42:58.926Z,88.47
2018-12-23T07:45:27.847Z,88.42
2018-12-23T07:47:56.785Z,87.94
2018-12-23T07:50:25.687Z,86.69
2018-12-23T07:52:54.622Z,88.06
2018-12-23T07:55:23.520Z,88.07
2018-12-23T07:57:52.428Z,88.40
2018-12-23T08:00:21.332Z,88.31
2018-12-23T08:02:50.245Z,88.75
2018-12-23T08:05:19.193Z,88.85
2018-12-23T08:07:48.053Z,89.31
2018-12-23T08:10:16.946Z,87.22
2018-12-23T08:12:45.826Z,88.51
2018-12-23T08:15:14.729Z,88.78
2018-12-23T08:17:43.620Z,88.47
2018-12-23T08:20:12.524Z,88.49
2018-12-23T08:22:41.417Z,88.29
2018-12-23T08:25:12.606Z,88.16
2018-12-23T08:27:41.513Z,87.79
2018-12-23T08:30:10.513Z,88.27
2018-12-23T08:32:39.420Z,88.31
2018-12-23T08:35:08.374Z,88.36
2018-12-23T08:37:44.420Z,87.72
2018-12-23T08:40:06.187Z,87.89
2018-12-23T08:42:35.062Z,87.81
2018-12-23T08:45:04.109Z,88.41
2018-12-23T08:47:33.025Z,88.47
2018-12-23T08:50:01.926Z,88.49
2018-12-23T08:52:30.884Z,88.67
2018-12-23T08:54:59.751Z,88.83
2018-12-23T08:57:28.706Z,88.90
2018-12-23T08:59:57.558Z,88.62
2018-12-23T09:02:26.502Z,88.75
2018-12-23T09:04:55.395Z,88.50
2018-12-23T09:07:24.280Z,88.54
2018-12-23T09:09:53.187Z,88.45
2018-12-23T09:12:22.063Z,87.92
2018-12-23T09:14:51.013Z,88.48
2018-12-23T09:17:19.902Z,88.27
2018-12-23T09:19:48.865Z,88.59
2018-12-23T09:22:19.705Z,87.21
2018-12-23T09:24:46.671Z,86.25
2018-12-23T09:27:15.582Z,87.42
2018-12-23T09:29:44.534Z,87.98
2018-12-23T09:32:13.498Z,87.98
2018-12-23T09:34:42.330Z,87.80
2018-12-23T09:37:11.230Z,88.17
2018-12-23T09:39:40.108Z,88.16
2018-12-23T09:42:09.091Z,88.74
2018-12-23T09:44:54.924Z,88.90
2018-12-23T09:47:26.053Z,88.77
2018-12-23T09:49:58.348Z,88.29
2018-12-23T09:52:30.974Z,87.33
2018-12-23T09:55:08.008Z,88.45
2018-12-23T09:57:40.162Z,86.88
2018-12-23T10:00:25.549Z,88.30
2018-12-23T10:02:57.094Z,88.24
2018-12-23T10:05:26.461Z,88.19
2018-12-23T10:08:11.811Z,88.61
2018-12-23T10:10:41.530Z,88.57
2018-12-23T10:13:10.849Z,88.53
2018-12-23T10:15:42.881Z,88.75
2018-12-23T10:18:22.267Z,89.04
2018-12-23T10:20:51.621Z,88.50
2018-12-23T10:23:22.577Z,88.62
2018-12-23T10:25:57.171Z,88.66
2018-12-23T10:28:27.247Z,88.91
2018-12-23T10:30:56.563Z,89.00
2018-12-23T10:33:29.292Z,88.67
2018-12-23T10:35:58.517Z,87.23
2018-12-23T10:38:30.771Z,87.96
2018-12-23T10:41:04.365Z,88.43
2018-12-23T10:43:33.727Z,88.41
2018-12-23T10:46:06.444Z,88.24
2018-12-23T10:48:36.208Z,86.88
2018-12-23T10:51:13.597Z,88.12
2018-12-23T10:53:48.739Z,88.26
2018-12-23T10:56:17.920Z,88.39
2018-12-23T10:58:47.285Z,88.08
2018-12-23T11:01:19.670Z,88.41
2018-12-23T11:03:51.659Z,88.24
2018-12-23T11:06:23.828Z,88.44
2018-12-23T11:08:53.681Z,88.40
2018-12-23T11:11:29.524Z,88.33
2018-12-23T11:13:59.089Z,88.24
2018-12-23T11:16:28.548Z,85.71
2018-12-23T11:19:00.733Z,86.89
2018-12-23T11:21:30.270Z,87.48
2018-12-23T11:24:11.210Z,87.79
2018-12-23T11:26:45.083Z,87.72
2018-12-23T11:29:12.958Z,87.57
2018-12-23T11:31:42.330Z,87.55
2018-12-23T11:34:16.047Z,87.75
2018-12-23T11:36:47.555Z,87.80
2018-12-23T11:39:17.183Z,87.80
2018-12-23T11:41:46.494Z,88.01
2018-12-23T11:44:15.811Z,87.98
2018-12-23T11:46:46.918Z,87.82
2018-12-23T11:49:14.456Z,86.03
2018-12-23T11:51:43.954Z,87.26
2018-12-23T11:55:02.144Z,87.51
2018-12-23T11:57:32.481Z,87.86
2018-12-23T12:00:04.587Z,88.06
2018-12-23T12:02:36.010Z,88.54
2018-12-23T12:05:05.344Z,89.02
2018-12-23T12:07:37.666Z,89.09
2018-12-23T12:10:09.660Z,88.86
2018-12-23T12:12:39.741Z,89.30
2018-12-23T12:15:09.281Z,89.33
2018-12-23T12:17:39.092Z,89.39
2018-12-23T12:20:15.049Z,89.17
2018-12-23T12:22:44.851Z,89.12
2018-12-23T12:25:18.700Z,87.60
2018-12-23T12:27:48.093Z,88.37
2018-12-23T12:30:17.467Z,88.31
2018-12-23T12:32:47.323Z,88.24
2018-12-23T12:35:16.720Z,88.45
2018-12-23T12:37:48.465Z,88.11
2018-12-23T12:40:17.849Z,87.96
2018-12-23T12:42:47.100Z,88.00
2018-12-23T12:45:19.088Z,87.94
2018-12-23T12:47:48.758Z,88.00
2018-12-23T12:50:24.780Z,88.01
2018-12-23T12:52:52.540Z,88.60
2018-12-23T12:55:21.233Z,88.39
2018-12-23T12:57:53.656Z,88.57
2018-12-23T13:00:22.708Z,89.15
2018-12-23T13:02:57.360Z,88.13
2018-12-23T13:05:26.575Z,88.14
2018-12-23T13:07:56.492Z,87.46
2018-12-23T13:10:26.037Z,87.69
2018-12-23T13:12:58.390Z,85.78
2018-12-23T13:15:28.064Z,86.43
2018-12-23T13:17:57.711Z,87.00
2018-12-23T13:20:30.117Z,86.70
2018-12-23T13:23:04.209Z,84.94
2018-12-23T13:25:36.210Z,86.24
2018-12-23T13:28:07.674Z,86.26
2018-12-23T13:30:37.326Z,85.84
2018-12-23T13:33:16.850Z,85.76
2018-12-23T13:35:46.428Z,85.81
2018-12-23T13:38:15.832Z,85.79
2018-12-23T13:41:35.211Z,85.34
2018-12-23T13:44:57.289Z,85.94
2018-12-23T13:47:57.643Z,86.31
2018-12-23T13:50:59.234Z,86.13
2018-12-23T13:53:59.482Z,86.36
2018-12-23T13:56:55.190Z,86.36
2018-12-23T14:00:02.321Z,86.51
2018-12-23T14:03:26.755Z,86.48
2018-12-23T14:06:26.046Z,86.70
2018-12-23T14:09:21.265Z,86.94
2018-12-23T14:11:59.525Z,87.22
2018-12-23T14:14:28.961Z,86.99
2018-12-23T14:16:58.384Z,87.41
2018-12-23T14:19:29.571Z,87.61
2018-12-23T14:22:03.266Z,87.67
2018-12-23T14:24:35.904Z,86.24
2018-12-23T14:27:08.875Z,87.24
2018-12-23T14:29:39.777Z,87.26
2018-12-23T14:32:09.361Z,87.56
2018-12-23T14:34:45.983Z,87.32
2018-12-23T14:37:15.801Z,87.27
2018-12-23T14:39:47.461Z,87.30
2018-12-23T14:42:21.951Z,87.37
2018-12-23T14:44:58.897Z,87.41
2018-12-23T14:47:28.167Z,87.42
2018-12-23T14:50:00.794Z,87.69
2018-12-23T14:52:30.294Z,87.96
2018-12-23T14:55:02.594Z,87.37
2018-12-23T14:57:33.533Z,87.05
2018-12-23T15:00:04.391Z,87.14
2018-12-23T15:02:35.737Z,87.31
2018-12-23T15:05:05.887Z,87.31
2018-12-23T15:07:38.033Z,87.25
2018-12-23T15:10:08.878Z,87.32
2018-12-23T15:12:41.822Z,87.18
2018-12-23T15:15:14.581Z,87.44
2018-12-23T15:17:44.153Z,87.60
2018-12-23T15:20:13.979Z,87.55
2018-12-23T15:22:46.344Z,87.35
2018-12-23T15:25:17.880Z,87.20
2018-12-23T15:27:48.314Z,86.95
2018-12-23T15:30:19.762Z,85.58
2018-12-23T15:32:49.245Z,86.42
2018-12-23T15:35:24.326Z,86.16
2018-12-23T15:37:58.060Z,84.20
2018-12-23T15:40:26.932Z,85.06
2018-12-23T15:42:55.862Z,85.63
2018-12-23T15:45:24.778Z,84.38
2018-12-23T15:47:53.660Z,85.72
2018-12-23T15:50:22.552Z,86.24
2018-12-23T15:52:51.437Z,86.83
2018-12-23T15:55:20.326Z,86.65
2018-12-23T15:57:49.201Z,86.75
2018-12-23T16:00:18.117Z,86.69
2018-12-23T16:02:47.033Z,85.13
2018-12-23T16:05:15.938Z,86.13
2018-12-23T16:07:44.868Z,86.17
2018-12-23T16:10:13.758Z,86.25
2018-12-23T16:12:42.654Z,86.46
2018-12-23T16:15:11.568Z,86.40
2018-12-23T16:17:40.510Z,86.55
2018-12-23T16:20:11.477Z,86.71
2018-12-23T16:22:40.401Z,86.60
2018-12-23T16:25:09.335Z,86.49
2018-12-23T16:27:38.247Z,86.69
2018-12-23T16:30:09.089Z,86.58
2018-12-23T16:32:37.959Z,86.62
2018-12-23T16:35:06.892Z,86.25
2018-12-23T16:37:35.828Z,86.11
2018-12-23T16:40:06.894Z,86.05
2018-12-23T16:42:35.792Z,85.87
2018-12-23T16:45:04.982Z,86.30
2018-12-23T16:47:33.914Z,86.19
2018-12-23T16:50:02.813Z,86.32
2018-12-23T16:52:31.695Z,86.90
2018-12-23T16:55:00.631Z,86.72
2018-12-23T16:57:29.469Z,87.11
2018-12-23T16:59:58.382Z,87.22
2018-12-23T17:02:27.284Z,87.08
2018-12-23T17:04:56.143Z,86.88
2018-12-23T17:07:25.037Z,87.28
2018-12-23T17:09:53.903Z,87.37
2018-12-23T17:12:22.797Z,87.47
2018-12-23T17:14:51.669Z,86.85
2018-12-23T17:17:20.573Z,86.67
2018-12-23T17:19:49.442Z,86.23
2018-12-23T17:22:18.370Z,86.33
2018-12-23T17:24:47.247Z,86.77
2018-12-23T17:27:16.869Z,86.80
2018-12-23T17:29:45.645Z,85.07
2018-12-23T17:32:14.568Z,86.34
2018-12-23T17:34:43.455Z,84.18
2018-12-23T17:37:12.356Z,85.93
2018-12-23T17:39:41.259Z,86.32
2018-12-23T17:42:10.202Z,86.33
2018-12-23T17:44:39.083Z,86.56
2018-12-23T17:47:07.983Z,86.37
2018-12-23T17:49:36.941Z,86.43
2018-12-23T17:52:05.854Z,86.70
2018-12-23T17:54:34.725Z,86.58
2018-12-23T17:57:03.609Z,86.43
2018-12-23T17:59:32.491Z,86.54
2018-12-23T18:02:01.423Z,86.71
2018-12-23T18:04:30.303Z,86.71
2018-12-23T18:07:03.778Z,86.22
2018-12-23T18:09:28.079Z,85.83
2018-12-23T18:11:56.976Z,85.95
2018-12-23T18:14:25.911Z,86.26
2018-12-23T18:16:54.718Z,85.46
2018-12-23T18:19:23.610Z,84.84
2018-12-23T18:21:52.501Z,85.57
2018-12-23T18:24:21.363Z,85.41
2018-12-23T18:26:50.277Z,85.77
2018-12-23T18:29:19.166Z,85.58
2018-12-23T18:31:48.066Z,85.21
2018-12-23T18:34:16.962Z,85.24
2018-12-23T18:36:45.829Z,84.95
2018-12-23T18:39:14.737Z,84.49
2018-12-23T18:41:43.611Z,84.61
2018-12-23T18:44:12.522Z,84.64
2018-12-23T18:46:41.393Z,84.39
2018-12-23T18:49:10.295Z,84.99
2018-12-23T18:51:39.171Z,85.19
2018-12-23T18:54:08.086Z,84.91
2018-12-23T18:56:40.414Z,84.54
2018-12-23T18:59:09.358Z,84.28
2018-12-23T19:01:40.677Z,84.75
2018-12-23T19:04:10.195Z,85.62
2018-12-23T19:06:39.081Z,85.46
2018-12-23T19:09:19.305Z,85.54
2018-12-23T19:12:35.912Z,85.71
2018-12-23T19:15:29.401Z,85.81
2018-12-23T19:18:36.185Z,85.41
2018-12-23T19:21:45.580Z,85.63
2018-12-23T19:24:27.463Z,85.84
2018-12-23T19:27:49.104Z,85.62
2018-12-23T19:30:44.643Z,85.27
2018-12-23T19:33:44.258Z,85.00
2018-12-23T19:37:00.726Z,84.08
2018-12-23T19:40:25.496Z,84.94
2018-12-23T19:43:21.883Z,85.20
2018-12-23T19:46:38.521Z,85.12
2018-12-23T19:49:34.010Z,85.20
2018-12-23T19:52:21.362Z,85.43
2018-12-23T19:55:22.734Z,85.16
2018-12-23T19:58:33.206Z,85.10
2018-12-23T20:01:49.900Z,85.10
2018-12-23T20:04:48.398Z,84.96
2018-12-23T20:07:33.044Z,85.02
2018-12-23T20:10:46.654Z,84.78
2018-12-23T20:13:40.121Z,84.54
2018-12-23T20:16:58.602Z,83.23
2018-12-23T20:20:00.895Z,84.22
2018-12-23T20:22:47.731Z,84.21
2018-12-23T20:25:59.991Z,84.36
2018-12-23T20:29:12.454Z,84.05
2018-12-23T20:32:28.438Z,84.68
2018-12-23T20:35:51.050Z,84.43
2018-12-23T20:38:45.160Z,84.32
2018-12-23T20:41:42.882Z,84.36
2018-12-23T20:44:41.713Z,84.46
2018-12-23T20:48:03.108Z,84.38
2018-12-23T20:51:10.913Z,84.60
2018-12-23T20:54:21.070Z,85.07
2018-12-23T20:57:43.584Z,84.20
2018-12-23T21:00:56.348Z,84.98
2018-12-23T21:03:50.850Z,84.49
2018-12-23T21:06:48.822Z,84.67
2018-12-23T21:09:45.764Z,84.37
2018-12-23T21:12:55.712Z,84.49
2018-12-23T21:16:25.439Z,84.10
2018-12-23T21:19:24.539Z,83.92
2018-12-23T21:22:20.794Z,83.92
2018-12-23T21:25:42.381Z,83.58
2018-12-23T21:28:23.986Z,83.43
2018-12-23T21:31:55.970Z,82.65
2018-12-23T21:35:12.848Z,83.77
2018-12-23T21:38:16.674Z,84.21
2018-12-23T21:41:33.682Z,82.82
2018-12-23T21:44:19.883Z,83.66
2018-12-23T21:47:25.243Z,84.01
2018-12-23T21:50:11.542Z,82.50
2018-12-23T21:53:28.229Z,83.05
2018-12-23T21:56:22.810Z,83.15
2018-12-23T21:59:24.391Z,83.33
2018-12-23T22:02:43.160Z,83.28
2018-12-23T22:05:58.744Z,83.77
2018-12-23T22:09:02.050Z,83.80
2018-12-23T22:11:52.152Z,83.98
2018-12-23T22:14:21.018Z,83.68
2018-12-23T22:16:49.943Z,84.14
2018-12-23T22:19:18.810Z,84.22
2018-12-23T22:21:47.790Z,84.36
2018-12-23T22:24:16.592Z,83.98
2018-12-23T22:26:45.496Z,84.35
2018-12-23T22:29:14.402Z,84.35
2018-12-23T22:31:43.325Z,84.10
2018-12-23T22:34:12.232Z,83.73
2018-12-23T22:36:41.138Z,83.53
2018-12-23T22:39:10.022Z,83.42
2018-12-23T22:41:41.454Z,84.23
2018-12-23T22:44:07.849Z,84.34
2018-12-23T22:46:36.710Z,84.21
2018-12-23T22:49:05.627Z,84.19
2018-12-23T22:51:34.562Z,83.88
2018-12-23T22:54:03.388Z,84.12
2018-12-23T22:56:32.263Z,84.06
2018-12-23T22:59:01.195Z,84.07
2018-12-23T23:01:30.077Z,84.55
2018-12-23T23:03:59.000Z,84.52
2018-12-23T23:06:27.935Z,84.50
2018-12-23T23:08:56.806Z,84.67
2018-12-23T23:11:27.480Z,84.52
2018-12-23T23:13:54.563Z,84.43
2018-12-23T23:16:23.437Z,84.22
2018-12-23T23:18:52.317Z,84.22
2018-12-23T23:21:21.202Z,84.11
2018-12-23T23:23:50.063Z,84.47
2018-12-23T23:26:18.942Z,84.28
2018-12-23T23:28:47.834Z,84.13
2018-12-23T23:31:16.714Z,84.15
2018-12-23T23:33:46.540Z,84.55
2018-12-23T23:36:14.501Z,84.37
2018-12-23T23:38:43.404Z,84.23
2018-12-23T23:41:12.299Z,83.96
2018-12-23T23:43:41.187Z,82.88
2018-12-23T23:46:10.079Z,82.17
2018-12-23T23:48:38.994Z,83.64
2018-12-23T23:51:07.938Z,82.65
2018-12-23T23:53:36.857Z,83.44
2018-12-23T23:56:05.772Z,83.75
2018-12-23T23:58:34.675Z,84.00
